sensor_id;sensor_type;location;lat;lon;timestamp;P1;durP1;ratioP1;P2;durP2;ratioP2
13975;SDS011;7062;49.792;9.946;2022-12-05T00:02:20;15.03;;;12.27;;
13975;SDS011;7062;49.792;9.946;2022-12-05T00:04:45;16.40;;;12.53;;
13975;SDS011;7062;49.792;9.946;2022-12-05T00:07:11;15.17;;;13.20;;
13975;SDS011;7062;49.792;9.946;2022-12-05T00:09:37;16.63;;;13.07;;
13975;SDS011;7062;49.792;9.946;2022-12-05T00:12:02;20.70;;;13.40;;
13975;SDS011;7062;49.792;9.946;2022-12-05T00:14:28;17.47;;;13.30;;
13975;SDS011;7062;49.792;9.946;2022-12-05T00:16:54;16.63;;;12.90;;
13975;SDS011;7062;49.792;9.946;2022-12-05T00:19:19;14.73;;;12.20;;
13975;SDS011;7062;49.792;9.946;2022-12-05T00:21:45;15.30;;;12.43;;
13975;SDS011;7062;49.792;9.946;2022-12-05T00:24:12;15.50;;;13.17;;
13975;SDS011;7062;49.792;9.946;2022-12-05T00:26:38;16.95;;;13.57;;
13975;SDS011;7062;49.792;9.946;2022-12-05T00:29:04;15.73;;;12.13;;
13975;SDS011;7062;49.792;9.946;2022-12-05T00:31:30;17.87;;;13.93;;
13975;SDS011;7062;49.792;9.946;2022-12-05T00:33:58;17.77;;;12.57;;
13975;SDS011;7062;49.792;9.946;2022-12-05T00:36:25;17.35;;;12.77;;
13975;SDS011;7062;49.792;9.946;2022-12-05T00:38:53;20.20;;;14.10;;
13975;SDS011;7062;49.792;9.946;2022-12-05T00:41:21;19.40;;;13.75;;
13975;SDS011;7062;49.792;9.946;2022-12-05T00:43:48;15.93;;;13.23;;
13975;SDS011;7062;49.792;9.946;2022-12-05T00:46:18;16.42;;;13.38;;
13975;SDS011;7062;49.792;9.946;2022-12-05T00:48:45;20.23;;;13.85;;
13975;SDS011;7062;49.792;9.946;2022-12-05T00:51:16;16.98;;;14.55;;
13975;SDS011;7062;49.792;9.946;2022-12-05T00:53:45;16.80;;;13.82;;
13975;SDS011;7062;49.792;9.946;2022-12-05T00:56:13;18.50;;;14.68;;
13975;SDS011;7062;49.792;9.946;2022-12-05T00:58:42;18.35;;;15.35;;
13975;SDS011;7062;49.792;9.946;2022-12-05T01:01:14;20.73;;;14.95;;
13975;SDS011;7062;49.792;9.946;2022-12-05T01:03:41;20.08;;;14.70;;
13975;SDS011;7062;49.792;9.946;2022-12-05T01:06:08;19.15;;;14.45;;
13975;SDS011;7062;49.792;9.946;2022-12-05T01:08:34;19.33;;;15.40;;
13975;SDS011;7062;49.792;9.946;2022-12-05T01:11:01;18.73;;;15.07;;
13975;SDS011;7062;49.792;9.946;2022-12-05T01:13:28;17.08;;;14.48;;
13975;SDS011;7062;49.792;9.946;2022-12-05T01:15:54;20.27;;;14.60;;
13975;SDS011;7062;49.792;9.946;2022-12-05T01:18:20;18.67;;;14.17;;
13975;SDS011;7062;49.792;9.946;2022-12-05T01:20:46;18.90;;;14.05;;
13975;SDS011;7062;49.792;9.946;2022-12-05T01:23:12;20.13;;;14.57;;
13975;SDS011;7062;49.792;9.946;2022-12-05T01:25:39;18.13;;;14.57;;
13975;SDS011;7062;49.792;9.946;2022-12-05T01:28:08;20.00;;;13.35;;
13975;SDS011;7062;49.792;9.946;2022-12-05T01:30:38;19.45;;;14.50;;
13975;SDS011;7062;49.792;9.946;2022-12-05T01:33:05;23.25;;;14.23;;
13975;SDS011;7062;49.792;9.946;2022-12-05T01:35:32;19.98;;;13.77;;
13975;SDS011;7062;49.792;9.946;2022-12-05T01:37:58;19.92;;;13.55;;
13975;SDS011;7062;49.792;9.946;2022-12-05T01:40:24;18.53;;;13.40;;
13975;SDS011;7062;49.792;9.946;2022-12-05T01:42:50;16.67;;;13.63;;
13975;SDS011;7062;49.792;9.946;2022-12-05T01:48:03;18.08;;;12.38;;
13975;SDS011;7062;49.792;9.946;2022-12-05T01:50:32;17.25;;;12.85;;
13975;SDS011;7062;49.792;9.946;2022-12-05T01:52:59;19.15;;;13.90;;
13975;SDS011;7062;49.792;9.946;2022-12-05T01:55:25;18.38;;;13.52;;
13975;SDS011;7062;49.792;9.946;2022-12-05T01:57:51;17.70;;;13.27;;
13975;SDS011;7062;49.792;9.946;2022-12-05T02:00:18;17.70;;;12.77;;
13975;SDS011;7062;49.792;9.946;2022-12-05T02:02:49;20.08;;;14.63;;
13975;SDS011;7062;49.792;9.946;2022-12-05T02:05:22;19.35;;;14.20;;
13975;SDS011;7062;49.792;9.946;2022-12-05T02:07:54;18.67;;;14.10;;
13975;SDS011;7062;49.792;9.946;2022-12-05T02:10:22;17.77;;;12.73;;
13975;SDS011;7062;49.792;9.946;2022-12-05T02:12:48;16.20;;;12.65;;
13975;SDS011;7062;49.792;9.946;2022-12-05T02:23:36;19.42;;;13.63;;
13975;SDS011;7062;49.792;9.946;2022-12-05T02:34:23;16.17;;;11.80;;
13975;SDS011;7062;49.792;9.946;2022-12-05T02:39:44;20.00;;;14.40;;
13975;SDS011;7062;49.792;9.946;2022-12-05T02:42:28;20.02;;;13.68;;
13975;SDS011;7062;49.792;9.946;2022-12-05T02:45:09;15.98;;;12.95;;
13975;SDS011;7062;49.792;9.946;2022-12-05T02:47:38;18.48;;;12.50;;
13975;SDS011;7062;49.792;9.946;2022-12-05T02:50:08;16.25;;;11.55;;
13975;SDS011;7062;49.792;9.946;2022-12-05T02:52:37;20.98;;;13.55;;
13975;SDS011;7062;49.792;9.946;2022-12-05T02:55:04;19.80;;;13.02;;
13975;SDS011;7062;49.792;9.946;2022-12-05T02:57:32;17.17;;;12.02;;
13975;SDS011;7062;49.792;9.946;2022-12-05T03:00:00;21.83;;;12.35;;
13975;SDS011;7062;49.792;9.946;2022-12-05T03:02:26;18.93;;;11.70;;
13975;SDS011;7062;49.792;9.946;2022-12-05T03:05:01;17.20;;;12.07;;
13975;SDS011;7062;49.792;9.946;2022-12-05T03:07:48;18.90;;;13.05;;
13975;SDS011;7062;49.792;9.946;2022-12-05T03:10:18;18.08;;;13.25;;
13975;SDS011;7062;49.792;9.946;2022-12-05T03:12:52;20.85;;;13.77;;
13975;SDS011;7062;49.792;9.946;2022-12-05T03:15:22;22.10;;;13.57;;
13975;SDS011;7062;49.792;9.946;2022-12-05T03:17:53;17.17;;;13.52;;
13975;SDS011;7062;49.792;9.946;2022-12-05T03:23:05;19.00;;;14.25;;
13975;SDS011;7062;49.792;9.946;2022-12-05T03:25:34;17.48;;;12.88;;
13975;SDS011;7062;49.792;9.946;2022-12-05T03:30:50;18.75;;;11.98;;
13975;SDS011;7062;49.792;9.946;2022-12-05T03:33:21;19.40;;;12.75;;
13975;SDS011;7062;49.792;9.946;2022-12-05T03:41:14;18.30;;;13.65;;
13975;SDS011;7062;49.792;9.946;2022-12-05T03:43:56;19.25;;;13.48;;
13975;SDS011;7062;49.792;9.946;2022-12-05T03:46:33;17.45;;;13.32;;
13975;SDS011;7062;49.792;9.946;2022-12-05T03:51:38;16.77;;;12.80;;
13975;SDS011;7062;49.792;9.946;2022-12-05T03:54:20;21.98;;;13.50;;
13975;SDS011;7062;49.792;9.946;2022-12-05T03:56:55;18.13;;;12.60;;
13975;SDS011;7062;49.792;9.946;2022-12-05T03:59:54;18.48;;;12.95;;
13975;SDS011;7062;49.792;9.946;2022-12-05T04:02:35;20.05;;;12.95;;
13975;SDS011;7062;49.792;9.946;2022-12-05T04:05:22;18.98;;;13.00;;
13975;SDS011;7062;49.792;9.946;2022-12-05T04:08:05;15.85;;;12.73;;
13975;SDS011;7062;49.792;9.946;2022-12-05T04:10:36;18.00;;;13.00;;
13975;SDS011;7062;49.792;9.946;2022-12-05T04:13:13;19.00;;;13.18;;
13975;SDS011;7062;49.792;9.946;2022-12-05T04:16:07;22.23;;;13.80;;
13975;SDS011;7062;49.792;9.946;2022-12-05T04:18:56;18.90;;;12.65;;
13975;SDS011;7062;49.792;9.946;2022-12-05T04:21:28;19.95;;;12.73;;
13975;SDS011;7062;49.792;9.946;2022-12-05T04:24:08;20.60;;;12.95;;
13975;SDS011;7062;49.792;9.946;2022-12-05T04:27:16;19.75;;;13.75;;
13975;SDS011;7062;49.792;9.946;2022-12-05T04:29:51;16.35;;;11.57;;
13975;SDS011;7062;49.792;9.946;2022-12-05T04:32:19;16.83;;;12.50;;
13975;SDS011;7062;49.792;9.946;2022-12-05T04:34:51;21.33;;;13.75;;
13975;SDS011;7062;49.792;9.946;2022-12-05T04:37:22;19.85;;;13.75;;
13975;SDS011;7062;49.792;9.946;2022-12-05T04:39:53;22.88;;;13.93;;
13975;SDS011;7062;49.792;9.946;2022-12-05T04:42:25;22.58;;;14.65;;
13975;SDS011;7062;49.792;9.946;2022-12-05T04:44:55;19.60;;;12.63;;
13975;SDS011;7062;49.792;9.946;2022-12-05T04:47:30;23.23;;;13.98;;
13975;SDS011;7062;49.792;9.946;2022-12-05T04:50:00;21.63;;;13.70;;
13975;SDS011;7062;49.792;9.946;2022-12-05T04:52:28;19.20;;;13.00;;
13975;SDS011;7062;49.792;9.946;2022-12-05T04:54:58;21.48;;;14.43;;
13975;SDS011;7062;49.792;9.946;2022-12-05T04:57:38;26.95;;;13.93;;
13975;SDS011;7062;49.792;9.946;2022-12-05T05:00:05;18.27;;;13.55;;
13975;SDS011;7062;49.792;9.946;2022-12-05T05:02:32;21.67;;;14.25;;
13975;SDS011;7062;49.792;9.946;2022-12-05T05:05:05;19.80;;;13.25;;
13975;SDS011;7062;49.792;9.946;2022-12-05T05:07:41;19.77;;;14.05;;
13975;SDS011;7062;49.792;9.946;2022-12-05T05:10:09;19.67;;;12.38;;
13975;SDS011;7062;49.792;9.946;2022-12-05T05:12:36;21.02;;;12.88;;
13975;SDS011;7062;49.792;9.946;2022-12-05T05:15:02;17.77;;;11.63;;
13975;SDS011;7062;49.792;9.946;2022-12-05T05:17:28;19.35;;;13.43;;
13975;SDS011;7062;49.792;9.946;2022-12-05T05:19:54;17.40;;;12.57;;
13975;SDS011;7062;49.792;9.946;2022-12-05T05:22:39;18.83;;;12.10;;
13975;SDS011;7062;49.792;9.946;2022-12-05T05:25:05;18.23;;;13.17;;
13975;SDS011;7062;49.792;9.946;2022-12-05T05:27:30;21.53;;;13.37;;
13975;SDS011;7062;49.792;9.946;2022-12-05T05:29:56;20.77;;;12.40;;
13975;SDS011;7062;49.792;9.946;2022-12-05T05:32:22;21.93;;;13.73;;
13975;SDS011;7062;49.792;9.946;2022-12-05T05:34:47;21.57;;;13.03;;
13975;SDS011;7062;49.792;9.946;2022-12-05T05:37:13;18.53;;;11.90;;
13975;SDS011;7062;49.792;9.946;2022-12-05T05:39:38;19.47;;;12.33;;
13975;SDS011;7062;49.792;9.946;2022-12-05T05:42:04;20.83;;;12.53;;
13975;SDS011;7062;49.792;9.946;2022-12-05T05:44:29;18.30;;;12.63;;
13975;SDS011;7062;49.792;9.946;2022-12-05T05:46:55;21.20;;;13.07;;
13975;SDS011;7062;49.792;9.946;2022-12-05T05:49:21;20.73;;;13.17;;
13975;SDS011;7062;49.792;9.946;2022-12-05T05:51:46;15.57;;;12.43;;
13975;SDS011;7062;49.792;9.946;2022-12-05T05:54:12;18.63;;;12.07;;
13975;SDS011;7062;49.792;9.946;2022-12-05T05:56:38;20.70;;;13.30;;
13975;SDS011;7062;49.792;9.946;2022-12-05T05:59:04;18.02;;;12.63;;
13975;SDS011;7062;49.792;9.946;2022-12-05T06:01:29;14.70;;;10.80;;
13975;SDS011;7062;49.792;9.946;2022-12-05T06:03:56;17.17;;;12.50;;
13975;SDS011;7062;49.792;9.946;2022-12-05T06:06:22;17.05;;;11.38;;
13975;SDS011;7062;49.792;9.946;2022-12-05T06:08:48;17.42;;;11.15;;
13975;SDS011;7062;49.792;9.946;2022-12-05T06:11:17;15.83;;;11.23;;
13975;SDS011;7062;49.792;9.946;2022-12-05T06:13:45;17.77;;;9.73;;
13975;SDS011;7062;49.792;9.946;2022-12-05T06:16:11;12.80;;;9.67;;
13975;SDS011;7062;49.792;9.946;2022-12-05T06:18:39;12.15;;;8.32;;
13975;SDS011;7062;49.792;9.946;2022-12-05T06:21:05;10.17;;;7.93;;
13975;SDS011;7062;49.792;9.946;2022-12-05T06:23:32;11.63;;;7.18;;
13975;SDS011;7062;49.792;9.946;2022-12-05T06:25:59;8.73;;;7.05;;
13975;SDS011;7062;49.792;9.946;2022-12-05T06:28:25;9.83;;;7.83;;
13975;SDS011;7062;49.792;9.946;2022-12-05T06:30:51;14.07;;;8.70;;
13975;SDS011;7062;49.792;9.946;2022-12-05T06:33:17;11.63;;;8.77;;
13975;SDS011;7062;49.792;9.946;2022-12-05T06:35:43;13.70;;;9.55;;
13975;SDS011;7062;49.792;9.946;2022-12-05T06:38:10;12.35;;;9.88;;
13975;SDS011;7062;49.792;9.946;2022-12-05T06:40:42;17.47;;;10.90;;
13975;SDS011;7062;49.792;9.946;2022-12-05T06:43:09;16.30;;;11.40;;
13975;SDS011;7062;49.792;9.946;2022-12-05T06:45:38;19.48;;;12.13;;
13975;SDS011;7062;49.792;9.946;2022-12-05T06:48:04;15.25;;;12.15;;
13975;SDS011;7062;49.792;9.946;2022-12-05T06:50:30;18.33;;;13.02;;
13975;SDS011;7062;49.792;9.946;2022-12-05T06:52:56;18.20;;;12.93;;
13975;SDS011;7062;49.792;9.946;2022-12-05T06:55:21;16.97;;;12.67;;
13975;SDS011;7062;49.792;9.946;2022-12-05T06:57:47;17.80;;;12.67;;
13975;SDS011;7062;49.792;9.946;2022-12-05T07:00:13;18.43;;;11.73;;
13975;SDS011;7062;49.792;9.946;2022-12-05T07:02:57;16.77;;;11.77;;
13975;SDS011;7062;49.792;9.946;2022-12-05T07:05:23;19.13;;;12.73;;
13975;SDS011;7062;49.792;9.946;2022-12-05T07:07:48;21.13;;;13.37;;
13975;SDS011;7062;49.792;9.946;2022-12-05T07:10:14;19.80;;;13.30;;
13975;SDS011;7062;49.792;9.946;2022-12-05T07:12:40;17.83;;;12.73;;
13975;SDS011;7062;49.792;9.946;2022-12-05T07:15:05;15.00;;;10.73;;
13975;SDS011;7062;49.792;9.946;2022-12-05T07:17:34;17.98;;;12.10;;
13975;SDS011;7062;49.792;9.946;2022-12-05T07:20:02;18.73;;;12.95;;
13975;SDS011;7062;49.792;9.946;2022-12-05T07:22:28;16.30;;;11.63;;
13975;SDS011;7062;49.792;9.946;2022-12-05T07:24:53;19.00;;;12.07;;
13975;SDS011;7062;49.792;9.946;2022-12-05T07:27:19;18.27;;;12.33;;
13975;SDS011;7062;49.792;9.946;2022-12-05T07:29:45;19.43;;;13.57;;
13975;SDS011;7062;49.792;9.946;2022-12-05T07:32:10;19.03;;;12.13;;
13975;SDS011;7062;49.792;9.946;2022-12-05T07:34:36;18.63;;;12.00;;
13975;SDS011;7062;49.792;9.946;2022-12-05T07:37:03;15.93;;;11.57;;
13975;SDS011;7062;49.792;9.946;2022-12-05T07:39:29;13.32;;;11.20;;
13975;SDS011;7062;49.792;9.946;2022-12-05T07:41:54;17.40;;;11.80;;
13975;SDS011;7062;49.792;9.946;2022-12-05T07:44:20;15.40;;;11.50;;
13975;SDS011;7062;49.792;9.946;2022-12-05T07:46:46;16.73;;;10.63;;
13975;SDS011;7062;49.792;9.946;2022-12-05T07:49:11;19.87;;;11.47;;
13975;SDS011;7062;49.792;9.946;2022-12-05T07:51:37;19.23;;;11.33;;
13975;SDS011;7062;49.792;9.946;2022-12-05T07:54:03;15.20;;;12.10;;
13975;SDS011;7062;49.792;9.946;2022-12-05T07:56:28;16.47;;;11.40;;
13975;SDS011;7062;49.792;9.946;2022-12-05T07:58:54;16.80;;;12.00;;
13975;SDS011;7062;49.792;9.946;2022-12-05T08:01:24;16.37;;;12.20;;
13975;SDS011;7062;49.792;9.946;2022-12-05T08:03:51;13.65;;;11.50;;
13975;SDS011;7062;49.792;9.946;2022-12-05T08:06:19;20.23;;;13.95;;
13975;SDS011;7062;49.792;9.946;2022-12-05T08:08:47;14.75;;;10.88;;
13975;SDS011;7062;49.792;9.946;2022-12-05T08:11:18;17.65;;;11.95;;
13975;SDS011;7062;49.792;9.946;2022-12-05T08:13:54;16.27;;;11.98;;
13975;SDS011;7062;49.792;9.946;2022-12-05T08:16:25;17.45;;;12.32;;
13975;SDS011;7062;49.792;9.946;2022-12-05T08:18:57;15.07;;;11.18;;
13975;SDS011;7062;49.792;9.946;2022-12-05T08:21:25;16.23;;;10.73;;
13975;SDS011;7062;49.792;9.946;2022-12-05T08:23:51;17.15;;;11.07;;
13975;SDS011;7062;49.792;9.946;2022-12-05T08:26:19;14.82;;;10.45;;
13975;SDS011;7062;49.792;9.946;2022-12-05T08:28:51;14.32;;;11.00;;
13975;SDS011;7062;49.792;9.946;2022-12-05T08:31:21;14.90;;;9.82;;
13975;SDS011;7062;49.792;9.946;2022-12-05T08:33:49;15.35;;;11.98;;
13975;SDS011;7062;49.792;9.946;2022-12-05T08:36:16;18.65;;;10.95;;
13975;SDS011;7062;49.792;9.946;2022-12-05T08:38:43;15.55;;;11.32;;
13975;SDS011;7062;49.792;9.946;2022-12-05T08:41:10;15.73;;;11.52;;
13975;SDS011;7062;49.792;9.946;2022-12-05T08:43:37;15.27;;;11.25;;
13975;SDS011;7062;49.792;9.946;2022-12-05T08:46:04;17.83;;;11.00;;
13975;SDS011;7062;49.792;9.946;2022-12-05T08:48:31;16.02;;;11.45;;
13975;SDS011;7062;49.792;9.946;2022-12-05T08:50:57;14.55;;;11.00;;
13975;SDS011;7062;49.792;9.946;2022-12-05T08:53:24;19.17;;;10.48;;
13975;SDS011;7062;49.792;9.946;2022-12-05T08:55:50;17.65;;;11.15;;
13975;SDS011;7062;49.792;9.946;2022-12-05T08:58:16;17.63;;;11.40;;
13975;SDS011;7062;49.792;9.946;2022-12-05T09:00:41;16.73;;;11.47;;
13975;SDS011;7062;49.792;9.946;2022-12-05T09:03:08;17.57;;;12.03;;
13975;SDS011;7062;49.792;9.946;2022-12-05T09:05:36;16.05;;;11.38;;
13975;SDS011;7062;49.792;9.946;2022-12-05T09:08:01;17.67;;;11.17;;
13975;SDS011;7062;49.792;9.946;2022-12-05T09:10:28;13.68;;;10.95;;
13975;SDS011;7062;49.792;9.946;2022-12-05T09:12:54;19.58;;;11.95;;
13975;SDS011;7062;49.792;9.946;2022-12-05T09:15:19;18.30;;;11.60;;
13975;SDS011;7062;49.792;9.946;2022-12-05T09:17:45;18.47;;;11.37;;
13975;SDS011;7062;49.792;9.946;2022-12-05T09:20:11;15.63;;;10.87;;
13975;SDS011;7062;49.792;9.946;2022-12-05T09:22:38;17.00;;;11.52;;
13975;SDS011;7062;49.792;9.946;2022-12-05T09:25:04;18.40;;;12.63;;
13975;SDS011;7062;49.792;9.946;2022-12-05T09:27:30;16.95;;;11.52;;
13975;SDS011;7062;49.792;9.946;2022-12-05T09:29:56;18.50;;;12.60;;
13975;SDS011;7062;49.792;9.946;2022-12-05T09:32:22;15.57;;;11.20;;
13975;SDS011;7062;49.792;9.946;2022-12-05T09:34:47;20.47;;;13.47;;
13975;SDS011;7062;49.792;9.946;2022-12-05T09:37:13;16.27;;;12.50;;
13975;SDS011;7062;49.792;9.946;2022-12-05T09:39:39;17.60;;;11.60;;
13975;SDS011;7062;49.792;9.946;2022-12-05T09:42:29;18.88;;;13.20;;
13975;SDS011;7062;49.792;9.946;2022-12-05T09:45:03;20.00;;;11.60;;
13975;SDS011;7062;49.792;9.946;2022-12-05T09:47:34;20.55;;;13.30;;
13975;SDS011;7062;49.792;9.946;2022-12-05T09:50:20;15.82;;;10.95;;
13975;SDS011;7062;49.792;9.946;2022-12-05T10:07:06;18.00;;;11.02;;
13975;SDS011;7062;49.792;9.946;2022-12-05T10:09:45;16.80;;;12.15;;
13975;SDS011;7062;49.792;9.946;2022-12-05T10:17:55;17.60;;;10.95;;
13975;SDS011;7062;49.792;9.946;2022-12-05T10:20:47;16.35;;;11.05;;
13975;SDS011;7062;49.792;9.946;2022-12-05T10:25:48;13.73;;;10.82;;
13975;SDS011;7062;49.792;9.946;2022-12-05T10:28:29;18.33;;;11.05;;
13975;SDS011;7062;49.792;9.946;2022-12-05T10:31:04;14.18;;;10.20;;
13975;SDS011;7062;49.792;9.946;2022-12-05T10:33:38;14.52;;;11.38;;
13975;SDS011;7062;49.792;9.946;2022-12-05T10:36:10;14.73;;;11.60;;
13975;SDS011;7062;49.792;9.946;2022-12-05T10:38:36;14.32;;;10.77;;
13975;SDS011;7062;49.792;9.946;2022-12-05T10:41:04;16.30;;;11.38;;
13975;SDS011;7062;49.792;9.946;2022-12-05T10:43:35;15.90;;;11.07;;
13975;SDS011;7062;49.792;9.946;2022-12-05T10:46:04;16.38;;;10.77;;
13975;SDS011;7062;49.792;9.946;2022-12-05T10:48:29;14.00;;;10.98;;
13975;SDS011;7062;49.792;9.946;2022-12-05T10:51:00;19.27;;;11.02;;
13975;SDS011;7062;49.792;9.946;2022-12-05T10:53:28;16.48;;;10.25;;
13975;SDS011;7062;49.792;9.946;2022-12-05T10:56:02;13.32;;;10.45;;
13975;SDS011;7062;49.792;9.946;2022-12-05T10:58:31;11.63;;;8.48;;
13975;SDS011;7062;49.792;9.946;2022-12-05T11:01:07;14.47;;;9.20;;
13975;SDS011;7062;49.792;9.946;2022-12-05T11:03:35;13.45;;;8.75;;
13975;SDS011;7062;49.792;9.946;2022-12-05T11:08:41;12.95;;;8.25;;
13975;SDS011;7062;49.792;9.946;2022-12-05T11:11:26;12.27;;;7.93;;
13975;SDS011;7062;49.792;9.946;2022-12-05T11:13:54;10.82;;;8.07;;
13975;SDS011;7062;49.792;9.946;2022-12-05T11:16:34;12.75;;;9.52;;
13975;SDS011;7062;49.792;9.946;2022-12-05T11:21:45;13.27;;;9.88;;
13975;SDS011;7062;49.792;9.946;2022-12-05T11:24:22;13.85;;;10.00;;
13975;SDS011;7062;49.792;9.946;2022-12-05T11:26:51;13.63;;;9.93;;
13975;SDS011;7062;49.792;9.946;2022-12-05T11:29:36;13.33;;;10.20;;
13975;SDS011;7062;49.792;9.946;2022-12-05T11:32:04;15.93;;;12.07;;
13975;SDS011;7062;49.792;9.946;2022-12-05T11:34:45;17.80;;;12.77;;
13975;SDS011;7062;49.792;9.946;2022-12-05T11:37:24;17.30;;;12.75;;
13975;SDS011;7062;49.792;9.946;2022-12-05T11:39:54;18.95;;;13.18;;
13975;SDS011;7062;49.792;9.946;2022-12-05T11:47:41;20.08;;;12.40;;
13975;SDS011;7062;49.792;9.946;2022-12-05T11:53:33;22.95;;;14.32;;
13975;SDS011;7062;49.792;9.946;2022-12-05T12:13:07;21.23;;;13.98;;
13975;SDS011;7062;49.792;9.946;2022-12-05T12:29:18;21.55;;;14.40;;
13975;SDS011;7062;49.792;9.946;2022-12-05T12:35:01;22.50;;;13.65;;
13975;SDS011;7062;49.792;9.946;2022-12-05T12:43:00;17.77;;;13.57;;
13975;SDS011;7062;49.792;9.946;2022-12-05T12:45:37;18.95;;;13.45;;
13975;SDS011;7062;49.792;9.946;2022-12-05T12:51:10;18.58;;;12.68;;
13975;SDS011;7062;49.792;9.946;2022-12-05T13:01:39;20.70;;;13.65;;
13975;SDS011;7062;49.792;9.946;2022-12-05T13:11:47;25.35;;;14.63;;
13975;SDS011;7062;49.792;9.946;2022-12-05T13:14:15;19.85;;;12.65;;
13975;SDS011;7062;49.792;9.946;2022-12-05T13:16:45;21.02;;;14.60;;
13975;SDS011;7062;49.792;9.946;2022-12-05T13:19:25;20.88;;;13.52;;
13975;SDS011;7062;49.792;9.946;2022-12-05T13:22:07;20.73;;;13.65;;
13975;SDS011;7062;49.792;9.946;2022-12-05T13:24:33;22.15;;;14.63;;
13975;SDS011;7062;49.792;9.946;2022-12-05T13:27:06;17.00;;;12.05;;
13975;SDS011;7062;49.792;9.946;2022-12-05T13:29:39;18.85;;;12.70;;
13975;SDS011;7062;49.792;9.946;2022-12-05T13:32:28;20.52;;;13.02;;
13975;SDS011;7062;49.792;9.946;2022-12-05T13:34:57;16.52;;;11.68;;
13975;SDS011;7062;49.792;9.946;2022-12-05T13:37:44;16.40;;;11.90;;
13975;SDS011;7062;49.792;9.946;2022-12-05T13:40:34;15.43;;;11.20;;
13975;SDS011;7062;49.792;9.946;2022-12-05T13:43:23;15.88;;;11.10;;
13975;SDS011;7062;49.792;9.946;2022-12-05T13:45:58;13.80;;;10.60;;
13975;SDS011;7062;49.792;9.946;2022-12-05T13:48:26;15.10;;;10.43;;
13975;SDS011;7062;49.792;9.946;2022-12-05T13:51:03;11.93;;;9.45;;
13975;SDS011;7062;49.792;9.946;2022-12-05T14:01:40;17.02;;;10.63;;
13975;SDS011;7062;49.792;9.946;2022-12-05T14:17:21;10.95;;;8.00;;
13975;SDS011;7062;49.792;9.946;2022-12-05T14:30:25;8.50;;;6.80;;
13975;SDS011;7062;49.792;9.946;2022-12-05T14:32:58;8.60;;;6.28;;
13975;SDS011;7062;49.792;9.946;2022-12-05T14:35:39;8.52;;;6.10;;
13975;SDS011;7062;49.792;9.946;2022-12-05T14:38:17;7.82;;;6.35;;
13975;SDS011;7062;49.792;9.946;2022-12-05T14:40:46;6.80;;;5.68;;
13975;SDS011;7062;49.792;9.946;2022-12-05T14:43:31;6.80;;;5.75;;
13975;SDS011;7062;49.792;9.946;2022-12-05T14:45:59;8.63;;;6.68;;
13975;SDS011;7062;49.792;9.946;2022-12-05T14:48:38;8.70;;;5.97;;
13975;SDS011;7062;49.792;9.946;2022-12-05T14:54:09;7.20;;;6.13;;
13975;SDS011;7062;49.792;9.946;2022-12-05T14:56:47;8.13;;;6.47;;
13975;SDS011;7062;49.792;9.946;2022-12-05T14:59:27;8.23;;;6.80;;
13975;SDS011;7062;49.792;9.946;2022-12-05T15:02:02;6.82;;;6.07;;
13975;SDS011;7062;49.792;9.946;2022-12-05T15:04:37;8.55;;;6.57;;
13975;SDS011;7062;49.792;9.946;2022-12-05T15:07:18;10.32;;;7.13;;
13975;SDS011;7062;49.792;9.946;2022-12-05T15:09:56;8.93;;;7.15;;
13975;SDS011;7062;49.792;9.946;2022-12-05T15:15:15;9.38;;;6.90;;
13975;SDS011;7062;49.792;9.946;2022-12-05T15:17:57;8.82;;;6.78;;
13975;SDS011;7062;49.792;9.946;2022-12-05T15:26:02;10.40;;;7.05;;
13975;SDS011;7062;49.792;9.946;2022-12-05T15:28:29;10.13;;;6.90;;
13975;SDS011;7062;49.792;9.946;2022-12-05T15:30:55;11.20;;;7.77;;
13975;SDS011;7062;49.792;9.946;2022-12-05T15:33:21;9.07;;;7.20;;
13975;SDS011;7062;49.792;9.946;2022-12-05T15:35:50;11.13;;;7.20;;
13975;SDS011;7062;49.792;9.946;2022-12-05T15:38:23;8.88;;;7.20;;
13975;SDS011;7062;49.792;9.946;2022-12-05T15:40:54;8.60;;;7.70;;
13975;SDS011;7062;49.792;9.946;2022-12-05T15:48:45;9.98;;;7.43;;
13975;SDS011;7062;49.792;9.946;2022-12-05T15:51:10;9.67;;;8.03;;
13975;SDS011;7062;49.792;9.946;2022-12-05T15:53:43;7.33;;;6.17;;
13975;SDS011;7062;49.792;9.946;2022-12-05T15:56:21;8.85;;;6.80;;
13975;SDS011;7062;49.792;9.946;2022-12-05T15:58:57;9.55;;;7.03;;
13975;SDS011;7062;49.792;9.946;2022-12-05T16:01:44;8.85;;;7.35;;
13975;SDS011;7062;49.792;9.946;2022-12-05T16:04:30;9.85;;;7.93;;
13975;SDS011;7062;49.792;9.946;2022-12-05T16:07:04;9.27;;;7.22;;
13975;SDS011;7062;49.792;9.946;2022-12-05T16:09:34;12.88;;;7.80;;
13975;SDS011;7062;49.792;9.946;2022-12-05T16:14:59;9.63;;;7.75;;
13975;SDS011;7062;49.792;9.946;2022-12-05T16:17:28;8.40;;;6.57;;
13975;SDS011;7062;49.792;9.946;2022-12-05T16:23:01;9.23;;;7.22;;
13975;SDS011;7062;49.792;9.946;2022-12-05T16:25:46;10.20;;;7.63;;
13975;SDS011;7062;49.792;9.946;2022-12-05T16:28:14;8.77;;;7.05;;
13975;SDS011;7062;49.792;9.946;2022-12-05T16:30:51;8.30;;;5.88;;
13975;SDS011;7062;49.792;9.946;2022-12-05T16:33:19;7.97;;;6.00;;
13975;SDS011;7062;49.792;9.946;2022-12-05T16:35:45;7.93;;;6.30;;
13975;SDS011;7062;49.792;9.946;2022-12-05T16:48:37;8.73;;;5.90;;
13975;SDS011;7062;49.792;9.946;2022-12-05T16:53:43;7.95;;;6.93;;
13975;SDS011;7062;49.792;9.946;2022-12-05T16:56:19;8.60;;;6.10;;
13975;SDS011;7062;49.792;9.946;2022-12-05T16:58:49;8.88;;;5.93;;
13975;SDS011;7062;49.792;9.946;2022-12-05T17:01:17;9.48;;;6.55;;
13975;SDS011;7062;49.792;9.946;2022-12-05T17:03:45;7.90;;;6.18;;
13975;SDS011;7062;49.792;9.946;2022-12-05T17:06:11;7.73;;;6.37;;
13975;SDS011;7062;49.792;9.946;2022-12-05T17:08:38;8.40;;;6.53;;
13975;SDS011;7062;49.792;9.946;2022-12-05T17:11:04;9.60;;;7.05;;
13975;SDS011;7062;49.792;9.946;2022-12-05T17:13:38;9.20;;;8.02;;
13975;SDS011;7062;49.792;9.946;2022-12-05T17:16:04;9.87;;;7.23;;
13975;SDS011;7062;49.792;9.946;2022-12-05T17:18:30;10.87;;;7.60;;
13975;SDS011;7062;49.792;9.946;2022-12-05T17:20:56;9.32;;;6.97;;
13975;SDS011;7062;49.792;9.946;2022-12-05T17:23:24;8.85;;;6.63;;
13975;SDS011;7062;49.792;9.946;2022-12-05T17:25:54;8.20;;;7.23;;
13975;SDS011;7062;49.792;9.946;2022-12-05T17:28:21;12.77;;;6.78;;
13975;SDS011;7062;49.792;9.946;2022-12-05T17:30:47;8.68;;;6.68;;
13975;SDS011;7062;49.792;9.946;2022-12-05T17:33:14;10.90;;;7.03;;
13975;SDS011;7062;49.792;9.946;2022-12-05T17:35:42;7.80;;;6.25;;
13975;SDS011;7062;49.792;9.946;2022-12-05T17:38:08;10.52;;;7.28;;
13975;SDS011;7062;49.792;9.946;2022-12-05T17:40:37;9.60;;;6.18;;
13975;SDS011;7062;49.792;9.946;2022-12-05T17:43:03;9.63;;;7.15;;
13975;SDS011;7062;49.792;9.946;2022-12-05T17:45:29;9.93;;;7.90;;
13975;SDS011;7062;49.792;9.946;2022-12-05T17:47:56;8.63;;;7.28;;
13975;SDS011;7062;49.792;9.946;2022-12-05T17:50:24;9.32;;;7.43;;
13975;SDS011;7062;49.792;9.946;2022-12-05T17:52:50;16.17;;;9.15;;
13975;SDS011;7062;49.792;9.946;2022-12-05T17:55:21;9.38;;;7.97;;
13975;SDS011;7062;49.792;9.946;2022-12-05T17:57:50;13.20;;;8.10;;
13975;SDS011;7062;49.792;9.946;2022-12-05T18:00:17;14.15;;;8.52;;
13975;SDS011;7062;49.792;9.946;2022-12-05T18:02:44;17.33;;;9.52;;
13975;SDS011;7062;49.792;9.946;2022-12-05T18:05:10;10.35;;;8.55;;
13975;SDS011;7062;49.792;9.946;2022-12-05T18:07:38;11.13;;;9.52;;
13975;SDS011;7062;49.792;9.946;2022-12-05T18:10:06;10.75;;;8.57;;
13975;SDS011;7062;49.792;9.946;2022-12-05T18:12:33;10.15;;;8.20;;
13975;SDS011;7062;49.792;9.946;2022-12-05T18:14:59;13.27;;;9.85;;
13975;SDS011;7062;49.792;9.946;2022-12-05T18:17:25;14.23;;;9.50;;